sensor_id;sensor_type;location;lat;lon;timestamp;P1;durP1;ratioP1;P2;durP2;ratioP2
40955;SDS011;26687;48.254;11.454;2022-11-24T00:01:38;1.93;;;1.00;;
40955;SDS011;26687;48.254;11.454;2022-11-24T00:04:38;2.88;;;1.25;;
40955;SDS011;26687;48.254;11.454;2022-11-24T00:07:39;2.30;;;1.23;;
40955;SDS011;26687;48.254;11.454;2022-11-24T00:10:39;4.40;;;1.65;;
40955;SDS011;26687;48.254;11.454;2022-11-24T00:13:39;1.98;;;1.30;;
40955;SDS011;26687;48.254;11.454;2022-11-24T00:16:40;2.40;;;1.20;;
40955;SDS011;26687;48.254;11.454;2022-11-24T00:19:40;1.70;;;1.20;;
40955;SDS011;26687;48.254;11.454;2022-11-24T00:22:40;2.70;;;1.27;;
40955;SDS011;26687;48.254;11.454;2022-11-24T00:25:41;4.33;;;1.30;;
40955;SDS011;26687;48.254;11.454;2022-11-24T00:28:42;3.85;;;1.30;;
40955;SDS011;26687;48.254;11.454;2022-11-24T00:31:42;3.92;;;1.40;;
40955;SDS011;26687;48.254;11.454;2022-11-24T00:34:42;2.30;;;1.35;;
40955;SDS011;26687;48.254;11.454;2022-11-24T00:37:43;3.35;;;1.40;;
40955;SDS011;26687;48.254;11.454;2022-11-24T00:40:43;2.15;;;1.23;;
40955;SDS011;26687;48.254;11.454;2022-11-24T00:43:43;2.90;;;1.27;;
40955;SDS011;26687;48.254;11.454;2022-11-24T00:46:43;4.07;;;1.50;;
40955;SDS011;26687;48.254;11.454;2022-11-24T00:49:43;3.13;;;1.23;;
40955;SDS011;26687;48.254;11.454;2022-11-24T00:52:43;3.00;;;1.33;;
40955;SDS011;26687;48.254;11.454;2022-11-24T00:55:47;1.88;;;1.15;;
40955;SDS011;26687;48.254;11.454;2022-11-24T00:58:48;2.30;;;1.42;;
40955;SDS011;26687;48.254;11.454;2022-11-24T01:01:49;2.78;;;1.40;;
40955;SDS011;26687;48.254;11.454;2022-11-24T01:04:49;1.80;;;1.10;;
40955;SDS011;26687;48.254;11.454;2022-11-24T01:07:49;3.73;;;1.50;;
40955;SDS011;26687;48.254;11.454;2022-11-24T01:10:50;1.90;;;0.88;;
40955;SDS011;26687;48.254;11.454;2022-11-24T01:13:51;3.55;;;1.30;;
40955;SDS011;26687;48.254;11.454;2022-11-24T01:16:51;3.03;;;1.00;;
40955;SDS011;26687;48.254;11.454;2022-11-24T01:19:52;2.78;;;1.27;;
40955;SDS011;26687;48.254;11.454;2022-11-24T01:22:52;3.38;;;1.30;;
40955;SDS011;26687;48.254;11.454;2022-11-24T01:25:52;2.85;;;1.23;;
40955;SDS011;26687;48.254;11.454;2022-11-24T01:28:53;3.75;;;1.35;;
40955;SDS011;26687;48.254;11.454;2022-11-24T01:31:54;2.80;;;1.55;;
40955;SDS011;26687;48.254;11.454;2022-11-24T01:34:54;3.90;;;1.40;;
40955;SDS011;26687;48.254;11.454;2022-11-24T01:37:54;3.00;;;0.90;;
40955;SDS011;26687;48.254;11.454;2022-11-24T01:44:18;3.17;;;1.30;;
40955;SDS011;26687;48.254;11.454;2022-11-24T01:47:23;4.15;;;1.30;;
40955;SDS011;26687;48.254;11.454;2022-11-24T01:50:28;2.72;;;1.10;;
40955;SDS011;26687;48.254;11.454;2022-11-24T01:53:28;3.27;;;1.20;;
40955;SDS011;26687;48.254;11.454;2022-11-24T01:56:29;2.85;;;1.17;;
40955;SDS011;26687;48.254;11.454;2022-11-24T01:59:30;1.95;;;1.00;;
40955;SDS011;26687;48.254;11.454;2022-11-24T02:02:30;2.03;;;1.10;;
40955;SDS011;26687;48.254;11.454;2022-11-24T02:08:51;2.50;;;1.30;;
40955;SDS011;26687;48.254;11.454;2022-11-24T02:11:54;2.78;;;0.93;;
40955;SDS011;26687;48.254;11.454;2022-11-24T02:14:54;5.75;;;1.20;;
40955;SDS011;26687;48.254;11.454;2022-11-24T02:17:55;3.50;;;1.40;;
40955;SDS011;26687;48.254;11.454;2022-11-24T02:20:57;3.35;;;1.00;;
40955;SDS011;26687;48.254;11.454;2022-11-24T02:27:04;2.53;;;0.88;;
40955;SDS011;26687;48.254;11.454;2022-11-24T02:30:04;1.90;;;0.90;;
40955;SDS011;26687;48.254;11.454;2022-11-24T02:33:05;2.30;;;0.90;;
40955;SDS011;26687;48.254;11.454;2022-11-24T02:36:05;2.22;;;0.82;;
40955;SDS011;26687;48.254;11.454;2022-11-24T02:39:12;2.08;;;0.95;;
40955;SDS011;26687;48.254;11.454;2022-11-24T02:42:12;1.17;;;0.60;;
40955;SDS011;26687;48.254;11.454;2022-11-24T02:45:13;1.15;;;0.80;;
40955;SDS011;26687;48.254;11.454;2022-11-24T02:48:14;1.73;;;0.70;;
40955;SDS011;26687;48.254;11.454;2022-11-24T02:51:14;1.60;;;0.80;;
40955;SDS011;26687;48.254;11.454;2022-11-24T02:54:14;1.40;;;0.53;;
40955;SDS011;26687;48.254;11.454;2022-11-24T02:57:15;1.13;;;0.40;;
40955;SDS011;26687;48.254;11.454;2022-11-24T03:00:15;3.83;;;0.70;;
40955;SDS011;26687;48.254;11.454;2022-11-24T03:03:15;1.35;;;0.57;;
40955;SDS011;26687;48.254;11.454;2022-11-24T03:06:16;2.08;;;0.57;;
40955;SDS011;26687;48.254;11.454;2022-11-24T03:09:16;1.63;;;0.80;;
40955;SDS011;26687;48.254;11.454;2022-11-24T03:12:16;1.17;;;0.40;;
40955;SDS011;26687;48.254;11.454;2022-11-24T03:15:16;1.90;;;0.50;;
40955;SDS011;26687;48.254;11.454;2022-11-24T03:18:16;2.83;;;0.52;;
40955;SDS011;26687;48.254;11.454;2022-11-24T03:21:17;0.93;;;0.40;;
40955;SDS011;26687;48.254;11.454;2022-11-24T03:24:17;1.05;;;0.50;;
40955;SDS011;26687;48.254;11.454;2022-11-24T03:27:17;0.47;;;0.30;;
40955;SDS011;26687;48.254;11.454;2022-11-24T03:30:17;1.65;;;0.70;;
40955;SDS011;26687;48.254;11.454;2022-11-24T03:33:18;1.90;;;0.60;;
40955;SDS011;26687;48.254;11.454;2022-11-24T03:36:18;1.15;;;0.40;;
40955;SDS011;26687;48.254;11.454;2022-11-24T03:39:18;1.33;;;0.53;;
40955;SDS011;26687;48.254;11.454;2022-11-24T03:42:18;0.63;;;0.40;;
40955;SDS011;26687;48.254;11.454;2022-11-24T03:45:18;1.20;;;0.30;;
40955;SDS011;26687;48.254;11.454;2022-11-24T03:48:18;1.83;;;0.52;;
40955;SDS011;26687;48.254;11.454;2022-11-24T03:51:22;1.10;;;0.38;;
40955;SDS011;26687;48.254;11.454;2022-11-24T03:54:22;2.97;;;0.40;;
40955;SDS011;26687;48.254;11.454;2022-11-24T03:57:22;0.88;;;0.30;;
40955;SDS011;26687;48.254;11.454;2022-11-24T04:00:22;1.33;;;0.30;;
40955;SDS011;26687;48.254;11.454;2022-11-24T04:03:23;1.73;;;0.60;;
40955;SDS011;26687;48.254;11.454;2022-11-24T04:06:23;1.08;;;0.40;;
40955;SDS011;26687;48.254;11.454;2022-11-24T04:09:23;1.60;;;0.47;;
40955;SDS011;26687;48.254;11.454;2022-11-24T04:12:24;0.97;;;0.47;;
40955;SDS011;26687;48.254;11.454;2022-11-24T04:15:43;1.77;;;0.38;;
40955;SDS011;26687;48.254;11.454;2022-11-24T04:18:43;1.35;;;0.30;;
40955;SDS011;26687;48.254;11.454;2022-11-24T04:21:43;1.08;;;0.40;;
40955;SDS011;26687;48.254;11.454;2022-11-24T04:24:43;0.67;;;0.30;;
40955;SDS011;26687;48.254;11.454;2022-11-24T04:27:43;1.00;;;0.50;;
40955;SDS011;26687;48.254;11.454;2022-11-24T04:30:44;1.35;;;0.68;;
40955;SDS011;26687;48.254;11.454;2022-11-24T04:33:44;2.07;;;0.60;;
40955;SDS011;26687;48.254;11.454;2022-11-24T04:36:44;2.83;;;0.50;;
40955;SDS011;26687;48.254;11.454;2022-11-24T04:39:44;2.03;;;0.50;;
40955;SDS011;26687;48.254;11.454;2022-11-24T04:42:54;1.17;;;0.50;;
40955;SDS011;26687;48.254;11.454;2022-11-24T04:45:55;1.65;;;0.70;;
40955;SDS011;26687;48.254;11.454;2022-11-24T04:48:55;0.82;;;0.50;;
40955;SDS011;26687;48.254;11.454;2022-11-24T04:51:55;2.30;;;0.75;;
40955;SDS011;26687;48.254;11.454;2022-11-24T04:54:55;2.95;;;0.70;;
40955;SDS011;26687;48.254;11.454;2022-11-24T04:57:55;1.50;;;0.40;;
40955;SDS011;26687;48.254;11.454;2022-11-24T05:00:55;2.70;;;0.70;;
40955;SDS011;26687;48.254;11.454;2022-11-24T05:03:56;2.13;;;0.90;;
40955;SDS011;26687;48.254;11.454;2022-11-24T05:06:57;2.65;;;0.80;;
40955;SDS011;26687;48.254;11.454;2022-11-24T05:09:57;1.75;;;0.80;;
40955;SDS011;26687;48.254;11.454;2022-11-24T05:13:16;3.85;;;0.98;;
40955;SDS011;26687;48.254;11.454;2022-11-24T05:16:16;2.80;;;0.80;;
40955;SDS011;26687;48.254;11.454;2022-11-24T05:19:16;1.80;;;0.82;;
40955;SDS011;26687;48.254;11.454;2022-11-24T05:22:17;2.17;;;0.90;;
40955;SDS011;26687;48.254;11.454;2022-11-24T05:25:17;2.33;;;0.87;;
40955;SDS011;26687;48.254;11.454;2022-11-24T05:28:17;2.50;;;0.93;;
40955;SDS011;26687;48.254;11.454;2022-11-24T05:31:18;3.25;;;1.13;;
40955;SDS011;26687;48.254;11.454;2022-11-24T05:34:18;3.33;;;0.82;;
40955;SDS011;26687;48.254;11.454;2022-11-24T05:37:19;2.35;;;1.10;;
40955;SDS011;26687;48.254;11.454;2022-11-24T05:40:20;2.45;;;1.10;;
40955;SDS011;26687;48.254;11.454;2022-11-24T05:43:20;2.70;;;1.13;;
40955;SDS011;26687;48.254;11.454;2022-11-24T05:46:20;2.10;;;0.82;;
40955;SDS011;26687;48.254;11.454;2022-11-24T05:49:20;3.45;;;1.20;;
40955;SDS011;26687;48.254;11.454;2022-11-24T05:52:20;2.23;;;1.10;;
40955;SDS011;26687;48.254;11.454;2022-11-24T05:55:20;3.60;;;1.30;;
40955;SDS011;26687;48.254;11.454;2022-11-24T05:58:21;4.05;;;1.20;;
40955;SDS011;26687;48.254;11.454;2022-11-24T06:01:21;2.90;;;1.40;;
40955;SDS011;26687;48.254;11.454;2022-11-24T06:04:21;6.37;;;1.30;;
40955;SDS011;26687;48.254;11.454;2022-11-24T06:07:21;4.03;;;1.40;;
40955;SDS011;26687;48.254;11.454;2022-11-24T06:10:22;4.63;;;1.30;;
40955;SDS011;26687;48.254;11.454;2022-11-24T06:13:25;5.05;;;1.20;;
40955;SDS011;26687;48.254;11.454;2022-11-24T06:16:25;3.38;;;1.08;;
40955;SDS011;26687;48.254;11.454;2022-11-24T06:19:25;3.30;;;1.27;;
40955;SDS011;26687;48.254;11.454;2022-11-24T06:22:26;4.10;;;1.20;;
40955;SDS011;26687;48.254;11.454;2022-11-24T06:25:26;3.72;;;1.25;;
40955;SDS011;26687;48.254;11.454;2022-11-24T06:28:27;5.55;;;1.17;;
40955;SDS011;26687;48.254;11.454;2022-11-24T06:31:27;4.07;;;1.38;;
40955;SDS011;26687;48.254;11.454;2022-11-24T06:34:27;4.80;;;1.20;;
40955;SDS011;26687;48.254;11.454;2022-11-24T06:37:28;5.63;;;1.20;;
40955;SDS011;26687;48.254;11.454;2022-11-24T06:40:28;5.47;;;1.20;;
40955;SDS011;26687;48.254;11.454;2022-11-24T06:43:29;4.57;;;1.48;;
40955;SDS011;26687;48.254;11.454;2022-11-24T06:46:29;4.75;;;1.50;;
40955;SDS011;26687;48.254;11.454;2022-11-24T06:49:29;5.60;;;1.20;;
40955;SDS011;26687;48.254;11.454;2022-11-24T06:52:29;4.85;;;1.27;;
40955;SDS011;26687;48.254;11.454;2022-11-24T06:55:30;6.80;;;1.27;;
40955;SDS011;26687;48.254;11.454;2022-11-24T06:58:30;6.03;;;1.30;;
40955;SDS011;26687;48.254;11.454;2022-11-24T07:01:30;2.70;;;1.30;;
40955;SDS011;26687;48.254;11.454;2022-11-24T07:04:31;5.10;;;1.05;;
40955;SDS011;26687;48.254;11.454;2022-11-24T07:07:31;5.97;;;1.53;;
40955;SDS011;26687;48.254;11.454;2022-11-24T07:10:31;6.90;;;1.70;;
40955;SDS011;26687;48.254;11.454;2022-11-24T07:13:33;4.25;;;1.60;;
40955;SDS011;26687;48.254;11.454;2022-11-24T07:16:33;5.70;;;1.45;;
40955;SDS011;26687;48.254;11.454;2022-11-24T07:19:33;4.47;;;1.35;;
40955;SDS011;26687;48.254;11.454;2022-11-24T07:22:34;3.33;;;1.40;;
40955;SDS011;26687;48.254;11.454;2022-11-24T07:25:34;5.53;;;1.15;;
40955;SDS011;26687;48.254;11.454;2022-11-24T07:28:34;5.78;;;1.67;;
40955;SDS011;26687;48.254;11.454;2022-11-24T07:31:35;3.47;;;1.25;;
40955;SDS011;26687;48.254;11.454;2022-11-24T07:34:36;4.00;;;1.40;;
40955;SDS011;26687;48.254;11.454;2022-11-24T07:37:36;5.57;;;1.27;;
40955;SDS011;26687;48.254;11.454;2022-11-24T07:40:36;5.30;;;1.77;;
40955;SDS011;26687;48.254;11.454;2022-11-24T07:43:36;3.70;;;1.37;;
40955;SDS011;26687;48.254;11.454;2022-11-24T07:46:36;4.72;;;1.30;;
40955;SDS011;26687;48.254;11.454;2022-11-24T07:49:37;4.50;;;1.33;;
40955;SDS011;26687;48.254;11.454;2022-11-24T07:52:37;6.30;;;1.60;;
40955;SDS011;26687;48.254;11.454;2022-11-24T07:55:37;3.88;;;1.55;;
40955;SDS011;26687;48.254;11.454;2022-11-24T07:58:37;6.13;;;1.42;;
40955;SDS011;26687;48.254;11.454;2022-11-24T08:01:38;4.30;;;1.35;;
40955;SDS011;26687;48.254;11.454;2022-11-24T08:04:38;4.30;;;1.10;;
40955;SDS011;26687;48.254;11.454;2022-11-24T08:07:38;4.53;;;1.07;;
40955;SDS011;26687;48.254;11.454;2022-11-24T08:10:38;4.30;;;1.08;;
40955;SDS011;26687;48.254;11.454;2022-11-24T08:13:38;3.67;;;1.58;;
40955;SDS011;26687;48.254;11.454;2022-11-24T08:16:39;4.03;;;1.40;;
40955;SDS011;26687;48.254;11.454;2022-11-24T08:19:39;4.60;;;1.47;;
40955;SDS011;26687;48.254;11.454;2022-11-24T08:22:39;4.43;;;1.13;;
40955;SDS011;26687;48.254;11.454;2022-11-24T08:25:39;3.35;;;1.25;;
40955;SDS011;26687;48.254;11.454;2022-11-24T08:28:40;4.75;;;1.05;;
40955;SDS011;26687;48.254;11.454;2022-11-24T08:31:40;4.50;;;1.38;;
40955;SDS011;26687;48.254;11.454;2022-11-24T08:34:40;3.58;;;1.27;;
40955;SDS011;26687;48.254;11.454;2022-11-24T08:37:40;3.65;;;0.95;;
40955;SDS011;26687;48.254;11.454;2022-11-24T08:40:41;3.70;;;1.27;;
40955;SDS011;26687;48.254;11.454;2022-11-24T08:43:41;3.97;;;1.05;;
40955;SDS011;26687;48.254;11.454;2022-11-24T08:46:41;3.63;;;1.20;;
40955;SDS011;26687;48.254;11.454;2022-11-24T08:49:41;6.55;;;1.30;;
40955;SDS011;26687;48.254;11.454;2022-11-24T08:52:42;5.73;;;1.50;;
40955;SDS011;26687;48.254;11.454;2022-11-24T08:55:42;3.30;;;1.10;;
40955;SDS011;26687;48.254;11.454;2022-11-24T08:58:42;4.55;;;1.35;;
40955;SDS011;26687;48.254;11.454;2022-11-24T09:01:42;4.17;;;1.40;;
40955;SDS011;26687;48.254;11.454;2022-11-24T09:04:43;4.97;;;1.30;;
40955;SDS011;26687;48.254;11.454;2022-11-24T09:07:44;3.08;;;1.00;;
40955;SDS011;26687;48.254;11.454;2022-11-24T09:10:44;6.03;;;1.45;;
40955;SDS011;26687;48.254;11.454;2022-11-24T09:13:45;3.42;;;1.30;;
40955;SDS011;26687;48.254;11.454;2022-11-24T09:16:45;5.23;;;1.30;;
40955;SDS011;26687;48.254;11.454;2022-11-24T09:19:46;4.57;;;1.15;;
40955;SDS011;26687;48.254;11.454;2022-11-24T09:22:46;4.53;;;1.40;;
40955;SDS011;26687;48.254;11.454;2022-11-24T09:25:46;4.28;;;1.20;;
40955;SDS011;26687;48.254;11.454;2022-11-24T09:28:47;3.37;;;1.30;;
40955;SDS011;26687;48.254;11.454;2022-11-24T09:31:47;4.72;;;1.40;;
40955;SDS011;26687;48.254;11.454;2022-11-24T09:34:48;3.73;;;0.93;;
40955;SDS011;26687;48.254;11.454;2022-11-24T09:37:49;4.03;;;1.13;;
40955;SDS011;26687;48.254;11.454;2022-11-24T09:40:51;4.60;;;1.48;;
40955;SDS011;26687;48.254;11.454;2022-11-24T09:47:01;5.22;;;1.17;;
40955;SDS011;26687;48.254;11.454;2022-11-24T09:50:07;3.78;;;1.17;;
40955;SDS011;26687;48.254;11.454;2022-11-24T09:53:29;6.10;;;1.20;;
40955;SDS011;26687;48.254;11.454;2022-11-24T09:56:31;5.40;;;1.63;;
40955;SDS011;26687;48.254;11.454;2022-11-24T09:59:32;2.90;;;1.00;;
40955;SDS011;26687;48.254;11.454;2022-11-24T10:02:32;3.50;;;0.90;;
40955;SDS011;26687;48.254;11.454;2022-11-24T10:05:33;4.25;;;1.10;;
40955;SDS011;26687;48.254;11.454;2022-11-24T10:15:24;3.08;;;1.30;;
40955;SDS011;26687;48.254;11.454;2022-11-24T10:18:11;3.05;;;0.77;;
40955;SDS011;26687;48.254;11.454;2022-11-24T10:21:18;2.53;;;0.70;;
40955;SDS011;26687;48.254;11.454;2022-11-24T10:27:25;1.63;;;0.50;;
40955;SDS011;26687;48.254;11.454;2022-11-24T10:30:28;2.50;;;0.70;;
40955;SDS011;26687;48.254;11.454;2022-11-24T10:33:28;1.10;;;0.40;;
40955;SDS011;26687;48.254;11.454;2022-11-24T10:36:32;1.35;;;0.60;;
40955;SDS011;26687;48.254;11.454;2022-11-24T10:39:51;0.95;;;0.40;;
40955;SDS011;26687;48.254;11.454;2022-11-24T10:42:53;2.33;;;0.65;;
40955;SDS011;26687;48.254;11.454;2022-11-24T10:45:54;1.87;;;0.60;;
40955;SDS011;26687;48.254;11.454;2022-11-24T10:48:56;2.72;;;0.65;;
40955;SDS011;26687;48.254;11.454;2022-11-24T10:52:03;1.03;;;0.60;;
40955;SDS011;26687;48.254;11.454;2022-11-24T10:55:05;1.77;;;0.70;;
40955;SDS011;26687;48.254;11.454;2022-11-24T10:58:14;1.92;;;0.88;;
40955;SDS011;26687;48.254;11.454;2022-11-24T11:04:17;1.77;;;0.80;;
40955;SDS011;26687;48.254;11.454;2022-11-24T11:07:18;1.75;;;0.90;;
40955;SDS011;26687;48.254;11.454;2022-11-24T11:10:20;2.08;;;0.85;;
40955;SDS011;26687;48.254;11.454;2022-11-24T11:13:25;3.50;;;1.25;;
40955;SDS011;26687;48.254;11.454;2022-11-24T11:22:35;3.35;;;1.33;;
40955;SDS011;26687;48.254;11.454;2022-11-24T11:25:36;3.25;;;1.10;;
40955;SDS011;26687;48.254;11.454;2022-11-24T11:28:37;3.05;;;1.20;;
40955;SDS011;26687;48.254;11.454;2022-11-24T11:31:37;1.55;;;0.75;;
40955;SDS011;26687;48.254;11.454;2022-11-24T11:34:37;5.28;;;1.30;;
40955;SDS011;26687;48.254;11.454;2022-11-24T11:37:38;2.40;;;1.40;;
40955;SDS011;26687;48.254;11.454;2022-11-24T11:40:39;4.07;;;1.50;;
40955;SDS011;26687;48.254;11.454;2022-11-24T11:43:41;2.73;;;0.93;;
40955;SDS011;26687;48.254;11.454;2022-11-24T11:46:42;3.35;;;0.93;;
40955;SDS011;26687;48.254;11.454;2022-11-24T11:49:43;2.38;;;0.80;;
40955;SDS011;26687;48.254;11.454;2022-11-24T11:52:49;3.88;;;1.10;;
40955;SDS011;26687;48.254;11.454;2022-11-24T11:56:04;2.20;;;1.00;;
40955;SDS011;26687;48.254;11.454;2022-11-24T12:02:30;1.98;;;0.77;;
40955;SDS011;26687;48.254;11.454;2022-11-24T12:08:55;2.60;;;0.70;;
40955;SDS011;26687;48.254;11.454;2022-11-24T12:15:27;1.70;;;0.73;;
40955;SDS011;26687;48.254;11.454;2022-11-24T12:18:34;1.23;;;0.47;;
40955;SDS011;26687;48.254;11.454;2022-11-24T12:24:43;1.38;;;0.52;;
40955;SDS011;26687;48.254;11.454;2022-11-24T12:37:17;2.05;;;0.60;;
40955;SDS011;26687;48.254;11.454;2022-11-24T12:46:43;2.63;;;0.73;;
40955;SDS011;26687;48.254;11.454;2022-11-24T12:50:08;3.58;;;0.98;;
40955;SDS011;26687;48.254;11.454;2022-11-24T12:53:22;1.77;;;0.77;;
40955;SDS011;26687;48.254;11.454;2022-11-24T12:56:26;1.67;;;0.57;;
40955;SDS011;26687;48.254;11.454;2022-11-24T12:59:51;2.53;;;0.80;;
40955;SDS011;26687;48.254;11.454;2022-11-24T13:06:00;2.95;;;1.10;;
40955;SDS011;26687;48.254;11.454;2022-11-24T13:12:06;2.80;;;1.02;;
40955;SDS011;26687;48.254;11.454;2022-11-24T13:15:14;2.42;;;0.82;;
40955;SDS011;26687;48.254;11.454;2022-11-24T13:21:45;1.70;;;0.70;;
40955;SDS011;26687;48.254;11.454;2022-11-24T13:25:02;1.42;;;0.75;;
40955;SDS011;26687;48.254;11.454;2022-11-24T13:28:03;2.67;;;0.95;;
40955;SDS011;26687;48.254;11.454;2022-11-24T13:31:09;2.08;;;1.10;;
40955;SDS011;26687;48.254;11.454;2022-11-24T13:43:29;2.10;;;1.05;;
40955;SDS011;26687;48.254;11.454;2022-11-24T13:49:48;2.50;;;0.95;;
40955;SDS011;26687;48.254;11.454;2022-11-24T13:59:13;2.00;;;1.20;;
40955;SDS011;26687;48.254;11.454;2022-11-24T14:02:19;4.28;;;2.03;;
40955;SDS011;26687;48.254;11.454;2022-11-24T14:05:21;3.35;;;1.17;;
40955;SDS011;26687;48.254;11.454;2022-11-24T14:08:23;4.28;;;2.40;;
40955;SDS011;26687;48.254;11.454;2022-11-24T14:11:24;5.05;;;3.35;;
40955;SDS011;26687;48.254;11.454;2022-11-24T14:14:27;2.40;;;1.35;;
40955;SDS011;26687;48.254;11.454;2022-11-24T14:17:27;1.50;;;0.60;;
40955;SDS011;26687;48.254;11.454;2022-11-24T14:20:27;2.75;;;1.70;;
40955;SDS011;26687;48.254;11.454;2022-11-24T14:23:27;2.60;;;2.10;;
40955;SDS011;26687;48.254;11.454;2022-11-24T14:26:32;1.80;;;0.60;;
40955;SDS011;26687;48.254;11.454;2022-11-24T14:29:33;2.25;;;0.90;;
40955;SDS011;26687;48.254;11.454;2022-11-24T14:32:33;3.65;;;1.55;;
40955;SDS011;26687;48.254;11.454;2022-11-24T14:35:34;7.15;;;5.53;;
40955;SDS011;26687;48.254;11.454;2022-11-24T14:38:34;11.20;;;8.80;;
40955;SDS011;26687;48.254;11.454;2022-11-24T14:41:35;5.87;;;4.60;;
40955;SDS011;26687;48.254;11.454;2022-11-24T14:44:43;5.55;;;3.83;;
40955;SDS011;26687;48.254;11.454;2022-11-24T14:47:44;4.13;;;3.30;;
40955;SDS011;26687;48.254;11.454;2022-11-24T14:50:44;5.13;;;3.10;;
40955;SDS011;26687;48.254;11.454;2022-11-24T14:53:46;3.83;;;2.88;;
40955;SDS011;26687;48.254;11.454;2022-11-24T14:57:00;2.75;;;2.38;;
40955;SDS011;26687;48.254;11.454;2022-11-24T15:03:26;3.58;;;2.30;;
40955;SDS011;26687;48.254;11.454;2022-11-24T15:06:26;4.43;;;3.15;;
40955;SDS011;26687;48.254;11.454;2022-11-24T15:09:29;5.83;;;4.40;;
40955;SDS011;26687;48.254;11.454;2022-11-24T15:15:37;1.80;;;1.08;;
40955;SDS011;26687;48.254;11.454;2022-11-24T15:18:44;2.38;;;1.50;;
40955;SDS011;26687;48.254;11.454;2022-11-24T15:21:45;6.57;;;3.92;;
40955;SDS011;26687;48.254;11.454;2022-11-24T15:24:49;5.90;;;4.85;;
40955;SDS011;26687;48.254;11.454;2022-11-24T15:27:50;12.25;;;9.07;;
40955;SDS011;26687;48.254;11.454;2022-11-24T15:31:00;9.13;;;6.07;;
40955;SDS011;26687;48.254;11.454;2022-11-24T15:34:01;5.72;;;4.53;;
40955;SDS011;26687;48.254;11.454;2022-11-24T15:37:02;3.50;;;2.97;;
40955;SDS011;26687;48.254;11.454;2022-11-24T15:40:02;4.00;;;2.70;;
40955;SDS011;26687;48.254;11.454;2022-11-24T15:43:05;3.53;;;2.73;;
40955;SDS011;26687;48.254;11.454;2022-11-24T15:46:20;4.07;;;3.33;;
40955;SDS011;26687;48.254;11.454;2022-11-24T15:49:20;6.60;;;5.10;;
40955;SDS011;26687;48.254;11.454;2022-11-24T15:52:20;4.60;;;4.00;;
40955;SDS011;26687;48.254;11.454;2022-11-24T15:55:20;4.00;;;3.57;;
40955;SDS011;26687;48.254;11.454;2022-11-24T15:58:21;4.82;;;3.70;;
40955;SDS011;26687;48.254;11.454;2022-11-24T16:01:21;6.40;;;5.80;;
40955;SDS011;26687;48.254;11.454;2022-11-24T16:04:22;7.03;;;6.35;;
40955;SDS011;26687;48.254;11.454;2022-11-24T16:07:23;5.27;;;4.70;;
40955;SDS011;26687;48.254;11.454;2022-11-24T16:10:30;4.68;;;4.00;;
40955;SDS011;26687;48.254;11.454;2022-11-24T16:13:31;6.28;;;5.00;;
40955;SDS011;26687;48.254;11.454;2022-11-24T16:16:31;6.45;;;5.20;;
40955;SDS011;26687;48.254;11.454;2022-11-24T16:19:32;6.82;;;5.05;;
40955;SDS011;26687;48.254;11.454;2022-11-24T16:22:32;5.50;;;4.07;;
40955;SDS011;26687;48.254;11.454;2022-11-24T16:25:32;3.57;;;2.67;;
40955;SDS011;26687;48.254;11.454;2022-11-24T16:28:32;4.68;;;3.17;;
40955;SDS011;26687;48.254;11.454;2022-11-24T16:31:32;3.30;;;2.67;;
40955;SDS011;26687;48.254;11.454;2022-11-24T16:34:33;5.15;;;3.22;;
40955;SDS011;26687;48.254;11.454;2022-11-24T16:37:33;6.32;;;4.35;;
40955;SDS011;26687;48.254;11.454;2022-11-24T16:40:33;5.13;;;4.25;;
40955;SDS011;26687;48.254;11.454;2022-11-24T16:43:33;5.93;;;4.60;;
40955;SDS011;26687;48.254;11.454;2022-11-24T16:46:33;6.15;;;3.75;;
40955;SDS011;26687;48.254;11.454;2022-11-24T16:49:34;4.80;;;3.60;;
40955;SDS011;26687;48.254;11.454;2022-11-24T16:52:34;4.53;;;4.07;;
40955;SDS011;26687;48.254;11.454;2022-11-24T16:55:34;4.30;;;3.47;;
40955;SDS011;26687;48.254;11.454;2022-11-24T16:58:38;7.33;;;4.90;;
40955;SDS011;26687;48.254;11.454;2022-11-24T17:01:38;6.07;;;4.43;;
40955;SDS011;26687;48.254;11.454;2022-11-24T17:04:39;7.68;;;5.05;;
40955;SDS011;26687;48.254;11.454;2022-11-24T17:07:40;4.38;;;3.97;;
40955;SDS011;26687;48.254;11.454;2022-11-24T17:10:40;4.97;;;4.30;;
40955;SDS011;26687;48.254;11.454;2022-11-24T17:13:40;5.40;;;4.43;;
40955;SDS011;26687;48.254;11.454;2022-11-24T17:16:40;4.60;;;3.88;;
40955;SDS011;26687;48.254;11.454;2022-11-24T17:19:41;5.93;;;3.90;;
40955;SDS011;26687;48.254;11.454;2022-11-24T17:22:42;5.03;;;4.18;;
40955;SDS011;26687;48.254;11.454;2022-11-24T17:25:42;4.40;;;3.92;;
40955;SDS011;26687;48.254;11.454;2022-11-24T17:28:43;4.80;;;4.40;;
40955;SDS011;26687;48.254;11.454;2022-11-24T17:31:43;5.70;;;4.60;;
40955;SDS011;26687;48.254;11.454;2022-11-24T17:34:43;6.70;;;4.60;;
40955;SDS011;26687;48.254;11.454;2022-11-24T17:37:43;8.27;;;4.55;;
40955;SDS011;26687;48.254;11.454;2022-11-24T17:40:47;7.15;;;4.03;;
40955;SDS011;26687;48.254;11.454;2022-11-24T17:46:47;4.47;;;3.10;;
40955;SDS011;26687;48.254;11.454;2022-11-24T17:49:47;4.35;;;3.17;;
40955;SDS011;26687;48.254;11.454;2022-11-24T17:52:47;4.57;;;2.92;;
40955;SDS011;26687;48.254;11.454;2022-11-24T17:55:48;4.13;;;3.00;;
40955;SDS011;26687;48.254;11.454;2022-11-24T17:58:50;6.82;;;5.40;;
40955;SDS011;26687;48.254;11.454;2022-11-24T18:01:51;10.32;;;7.88;;
40955;SDS011;26687;48.254;11.454;2022-11-24T18:04:51;7.97;;;5.90;;
40955;SDS011;26687;48.254;11.454;2022-11-24T18:07:51;9.60;;;8.18;;
40955;SDS011;26687;48.254;11.454;2022-11-24T18:10:51;9.55;;;7.00;;
40955;SDS011;26687;48.254;11.454;2022-11-24T18:13:54;6.95;;;5.82;;
40955;SDS011;26687;48.254;11.454;2022-11-24T18:16:54;6.13;;;5.40;;
40955;SDS011;26687;48.254;11.454;2022-11-24T18:19:55;7.90;;;5.70;;
40955;SDS011;26687;48.254;11.454;2022-11-24T18:22:55;5.83;;;4.33;;
40955;SDS011;26687;48.254;11.454;2022-11-24T18:25:58;3.70;;;3.30;;
40955;SDS011;26687;48.254;11.454;2022-11-24T18:28:59;5.40;;;3.78;;
40955;SDS011;26687;48.254;11.454;2022-11-24T18:31:59;4.87;;;2.87;;
40955;SDS011;26687;48.254;11.454;2022-11-24T18:35:00;5.60;;;3.60;;
40955;SDS011;26687;48.254;11.454;2022-11-24T18:38:00;5.22;;;4.22;;
40955;SDS011;26687;48.254;11.454;2022-11-24T18:41:00;5.07;;;4.63;;
40955;SDS011;26687;48.254;11.454;2022-11-24T18:44:00;7.05;;;5.00;;
40955;SDS011;26687;48.254;11.454;2022-11-24T18:47:02;6.45;;;5.28;;
40955;SDS011;26687;48.254;11.454;2022-11-24T18:50:02;4.95;;;4.38;;
40955;SDS011;26687;48.254;11.454;2022-11-24T18:53:02;9.18;;;5.45;;
40955;SDS011;26687;48.254;11.454;2022-11-24T18:56:03;6.95;;;6.10;;
40955;SDS011;26687;48.254;11.454;2022-11-24T18:59:04;8.63;;;7.72;;
40955;SDS011;26687;48.254;11.454;2022-11-24T19:02:04;8.85;;;7.95;;
40955;SDS011;26687;48.254;11.454;2022-11-24T19:05:04;8.25;;;7.40;;
40955;SDS011;26687;48.254;11.454;2022-11-24T19:08:05;8.87;;;7.97;;
40955;SDS011;26687;48.254;11.454;2022-11-24T19:11:05;8.20;;;7.25;;
40955;SDS011;26687;48.254;11.454;2022-11-24T19:14:06;8.40;;;7.60;;
40955;SDS011;26687;48.254;11.454;2022-11-24T19:17:06;8.93;;;8.02;;
40955;SDS011;26687;48.254;11.454;2022-11-24T19:20:07;6.75;;;6.15;;
40955;SDS011;26687;48.254;11.454;2022-11-24T19:23:07;6.72;;;6.05;;
40955;SDS011;26687;48.254;11.454;2022-11-24T19:26:07;6.03;;;5.30;;
40955;SDS011;26687;48.254;11.454;2022-11-24T19:29:07;6.80;;;5.60;;
40955;SDS011;26687;48.254;11.454;2022-11-24T19:32:07;6.77;;;5.77;;
40955;SDS011;26687;48.254;11.454;2022-11-24T19:35:08;7.43;;;6.47;;